sensor_id;sensor_type;location;lat;lon;timestamp;P1;durP1;ratioP1;P2;durP2;ratioP2
31872;SDS011;22407;42.820;23.374;2022-11-22T00:01:22;23.50;;;21.20;;
31872;SDS011;22407;42.820;23.374;2022-11-22T00:03:47;20.43;;;18.50;;
31872;SDS011;22407;42.820;23.374;2022-11-22T00:06:12;22.90;;;20.70;;
31872;SDS011;22407;42.820;23.374;2022-11-22T00:08:38;23.17;;;20.87;;
31872;SDS011;22407;42.820;23.374;2022-11-22T00:11:03;24.58;;;22.17;;
31872;SDS011;22407;42.820;23.374;2022-11-22T00:13:29;25.67;;;23.17;;
31872;SDS011;22407;42.820;23.374;2022-11-22T00:15:58;23.60;;;21.30;;
31872;SDS011;22407;42.820;23.374;2022-11-22T00:18:23;22.03;;;19.93;;
31872;SDS011;22407;42.820;23.374;2022-11-22T00:20:49;29.30;;;22.88;;
31872;SDS011;22407;42.820;23.374;2022-11-22T00:23:14;24.20;;;21.60;;
31872;SDS011;22407;42.820;23.374;2022-11-22T00:25:40;23.05;;;20.75;;
31872;SDS011;22407;42.820;23.374;2022-11-22T00:28:05;23.53;;;21.17;;
31872;SDS011;22407;42.820;23.374;2022-11-22T00:30:30;26.83;;;24.03;;
31872;SDS011;22407;42.820;23.374;2022-11-22T00:32:56;21.87;;;19.67;;
31872;SDS011;22407;42.820;23.374;2022-11-22T00:35:21;22.27;;;20.17;;
31872;SDS011;22407;42.820;23.374;2022-11-22T00:37:47;21.10;;;19.00;;
31872;SDS011;22407;42.820;23.374;2022-11-22T00:40:12;20.50;;;18.50;;
31872;SDS011;22407;42.820;23.374;2022-11-22T00:42:37;21.07;;;19.17;;
31872;SDS011;22407;42.820;23.374;2022-11-22T00:45:03;19.93;;;18.03;;
31872;SDS011;22407;42.820;23.374;2022-11-22T00:47:28;21.20;;;19.10;;
31872;SDS011;22407;42.820;23.374;2022-11-22T00:49:53;21.70;;;19.50;;
31872;SDS011;22407;42.820;23.374;2022-11-22T00:52:19;21.85;;;19.70;;
31872;SDS011;22407;42.820;23.374;2022-11-22T00:54:44;20.67;;;18.67;;
31872;SDS011;22407;42.820;23.374;2022-11-22T00:57:09;21.83;;;19.73;;
31872;SDS011;22407;42.820;23.374;2022-11-22T00:59:35;21.20;;;19.17;;
31872;SDS011;22407;42.820;23.374;2022-11-22T01:02:00;20.93;;;18.93;;
31872;SDS011;22407;42.820;23.374;2022-11-22T01:04:25;22.63;;;20.47;;
31872;SDS011;22407;42.820;23.374;2022-11-22T01:06:51;21.13;;;19.07;;
31872;SDS011;22407;42.820;23.374;2022-11-22T01:09:18;20.33;;;18.42;;
31872;SDS011;22407;42.820;23.374;2022-11-22T01:11:44;20.85;;;18.85;;
31872;SDS011;22407;42.820;23.374;2022-11-22T01:14:09;22.85;;;20.67;;
31872;SDS011;22407;42.820;23.374;2022-11-22T01:16:35;21.83;;;19.73;;
31872;SDS011;22407;42.820;23.374;2022-11-22T01:19:00;20.90;;;18.83;;
31872;SDS011;22407;42.820;23.374;2022-11-22T01:21:25;22.20;;;20.10;;
31872;SDS011;22407;42.820;23.374;2022-11-22T01:23:51;24.00;;;21.70;;
31872;SDS011;22407;42.820;23.374;2022-11-22T01:26:16;21.00;;;18.93;;
31872;SDS011;22407;42.820;23.374;2022-11-22T01:28:41;20.30;;;18.40;;
31872;SDS011;22407;42.820;23.374;2022-11-22T01:31:07;22.17;;;19.88;;
31872;SDS011;22407;42.820;23.374;2022-11-22T01:33:33;24.13;;;21.60;;
31872;SDS011;22407;42.820;23.374;2022-11-22T01:35:58;23.33;;;20.87;;
31872;SDS011;22407;42.820;23.374;2022-11-22T01:38:24;26.33;;;21.97;;
31872;SDS011;22407;42.820;23.374;2022-11-22T01:40:49;27.52;;;22.58;;
31872;SDS011;22407;42.820;23.374;2022-11-22T01:43:16;30.47;;;27.20;;
31872;SDS011;22407;42.820;23.374;2022-11-22T01:45:43;64.13;;;34.25;;
31872;SDS011;22407;42.820;23.374;2022-11-22T01:50:34;58.53;;;34.27;;
31872;SDS011;22407;42.820;23.374;2022-11-22T01:53:11;39.65;;;28.27;;
31872;SDS011;22407;42.820;23.374;2022-11-22T01:55:38;29.83;;;25.25;;
31872;SDS011;22407;42.820;23.374;2022-11-22T01:58:04;31.73;;;24.90;;
31872;SDS011;22407;42.820;23.374;2022-11-22T02:00:29;25.33;;;22.83;;
31872;SDS011;22407;42.820;23.374;2022-11-22T02:02:56;26.50;;;21.85;;
31872;SDS011;22407;42.820;23.374;2022-11-22T02:05:25;25.02;;;21.98;;
31872;SDS011;22407;42.820;23.374;2022-11-22T02:10:21;24.02;;;21.52;;
31872;SDS011;22407;42.820;23.374;2022-11-22T02:12:46;23.77;;;21.27;;
31872;SDS011;22407;42.820;23.374;2022-11-22T02:15:13;24.55;;;22.20;;
31872;SDS011;22407;42.820;23.374;2022-11-22T02:17:38;24.53;;;22.30;;
31872;SDS011;22407;42.820;23.374;2022-11-22T02:20:03;24.63;;;22.23;;
31872;SDS011;22407;42.820;23.374;2022-11-22T02:22:32;26.58;;;24.08;;
31872;SDS011;22407;42.820;23.374;2022-11-22T02:25:06;23.95;;;21.65;;
31872;SDS011;22407;42.820;23.374;2022-11-22T02:27:33;23.33;;;20.90;;
31872;SDS011;22407;42.820;23.374;2022-11-22T02:29:58;24.27;;;21.90;;
31872;SDS011;22407;42.820;23.374;2022-11-22T02:32:23;23.60;;;21.30;;
31872;SDS011;22407;42.820;23.374;2022-11-22T02:34:49;24.17;;;21.77;;
31872;SDS011;22407;42.820;23.374;2022-11-22T02:37:16;25.25;;;22.85;;
31872;SDS011;22407;42.820;23.374;2022-11-22T02:39:43;25.70;;;23.25;;
31872;SDS011;22407;42.820;23.374;2022-11-22T02:42:09;23.37;;;21.07;;
31872;SDS011;22407;42.820;23.374;2022-11-22T02:44:35;23.52;;;21.33;;
31872;SDS011;22407;42.820;23.374;2022-11-22T02:47:00;25.20;;;22.75;;
31872;SDS011;22407;42.820;23.374;2022-11-22T02:49:26;24.73;;;22.43;;
31872;SDS011;22407;42.820;23.374;2022-11-22T02:51:51;23.90;;;21.67;;
31872;SDS011;22407;42.820;23.374;2022-11-22T02:54:17;25.33;;;23.02;;
31872;SDS011;22407;42.820;23.374;2022-11-22T02:56:43;22.13;;;20.02;;
31872;SDS011;22407;42.820;23.374;2022-11-22T02:59:08;22.50;;;20.40;;
31872;SDS011;22407;42.820;23.374;2022-11-22T03:01:34;23.15;;;21.05;;
31872;SDS011;22407;42.820;23.374;2022-11-22T03:03:59;23.00;;;20.90;;
31872;SDS011;22407;42.820;23.374;2022-11-22T03:06:25;23.40;;;21.30;;
31872;SDS011;22407;42.820;23.374;2022-11-22T03:08:50;67.10;;;38.90;;
31872;SDS011;22407;42.820;23.374;2022-11-22T03:11:15;40.27;;;29.30;;
31872;SDS011;22407;42.820;23.374;2022-11-22T03:13:41;26.37;;;23.57;;
31872;SDS011;22407;42.820;23.374;2022-11-22T03:16:06;23.80;;;21.45;;
31872;SDS011;22407;42.820;23.374;2022-11-22T03:18:32;24.37;;;22.07;;
31872;SDS011;22407;42.820;23.374;2022-11-22T03:21:05;23.20;;;20.88;;
31872;SDS011;22407;42.820;23.374;2022-11-22T03:23:30;22.92;;;20.65;;
31872;SDS011;22407;42.820;23.374;2022-11-22T03:25:56;23.40;;;21.10;;
31872;SDS011;22407;42.820;23.374;2022-11-22T03:28:21;21.57;;;19.67;;
31872;SDS011;22407;42.820;23.374;2022-11-22T03:30:47;22.20;;;20.08;;
31872;SDS011;22407;42.820;23.374;2022-11-22T03:33:12;21.87;;;19.77;;
31872;SDS011;22407;42.820;23.374;2022-11-22T03:35:38;24.93;;;22.60;;
31872;SDS011;22407;42.820;23.374;2022-11-22T03:38:03;23.60;;;21.50;;
31872;SDS011;22407;42.820;23.374;2022-11-22T03:40:29;23.43;;;21.43;;
31872;SDS011;22407;42.820;23.374;2022-11-22T03:42:56;23.00;;;20.90;;
31872;SDS011;22407;42.820;23.374;2022-11-22T03:45:22;22.55;;;20.55;;
31872;SDS011;22407;42.820;23.374;2022-11-22T03:47:47;24.10;;;20.10;;
31872;SDS011;22407;42.820;23.374;2022-11-22T03:50:13;26.47;;;23.77;;
31872;SDS011;22407;42.820;23.374;2022-11-22T03:52:38;26.37;;;23.70;;
31872;SDS011;22407;42.820;23.374;2022-11-22T03:55:04;25.20;;;22.50;;
31872;SDS011;22407;42.820;23.374;2022-11-22T03:57:29;22.80;;;20.60;;
31872;SDS011;22407;42.820;23.374;2022-11-22T03:59:55;20.67;;;18.87;;
31872;SDS011;22407;42.820;23.374;2022-11-22T04:02:20;20.30;;;18.30;;
31872;SDS011;22407;42.820;23.374;2022-11-22T04:04:45;21.93;;;19.97;;
31872;SDS011;22407;42.820;23.374;2022-11-22T04:07:11;22.50;;;20.40;;
31872;SDS011;22407;42.820;23.374;2022-11-22T04:09:36;23.90;;;21.50;;
31872;SDS011;22407;42.820;23.374;2022-11-22T04:12:01;31.70;;;24.40;;
31872;SDS011;22407;42.820;23.374;2022-11-22T04:14:27;26.77;;;22.87;;
31872;SDS011;22407;42.820;23.374;2022-11-22T04:17:11;23.02;;;20.83;;
31872;SDS011;22407;42.820;23.374;2022-11-22T04:19:36;22.75;;;20.63;;
31872;SDS011;22407;42.820;23.374;2022-11-22T04:22:02;21.20;;;19.40;;
31872;SDS011;22407;42.820;23.374;2022-11-22T04:24:27;22.63;;;20.50;;
31872;SDS011;22407;42.820;23.374;2022-11-22T04:27:11;22.67;;;20.73;;
31872;SDS011;22407;42.820;23.374;2022-11-22T04:29:36;47.10;;;31.97;;
31872;SDS011;22407;42.820;23.374;2022-11-22T04:32:02;83.83;;;44.03;;
31872;SDS011;22407;42.820;23.374;2022-11-22T04:34:46;29.77;;;23.98;;
31872;SDS011;22407;42.820;23.374;2022-11-22T04:37:11;39.17;;;28.38;;
31872;SDS011;22407;42.820;23.374;2022-11-22T04:39:37;46.17;;;30.47;;
31872;SDS011;22407;42.820;23.374;2022-11-22T04:42:02;45.07;;;29.70;;
31872;SDS011;22407;42.820;23.374;2022-11-22T04:44:46;46.63;;;29.15;;
31872;SDS011;22407;42.820;23.374;2022-11-22T04:47:15;56.63;;;34.30;;
31872;SDS011;22407;42.820;23.374;2022-11-22T04:50:00;37.50;;;28.33;;
31872;SDS011;22407;42.820;23.374;2022-11-22T04:52:25;25.52;;;23.02;;
31872;SDS011;22407;42.820;23.374;2022-11-22T04:55:09;25.08;;;22.77;;
31872;SDS011;22407;42.820;23.374;2022-11-22T04:57:35;23.40;;;21.13;;
31872;SDS011;22407;42.820;23.374;2022-11-22T05:00:00;24.10;;;21.63;;
31872;SDS011;22407;42.820;23.374;2022-11-22T05:02:25;25.40;;;22.90;;
31872;SDS011;22407;42.820;23.374;2022-11-22T05:04:51;23.90;;;21.50;;
31872;SDS011;22407;42.820;23.374;2022-11-22T05:07:16;24.13;;;21.63;;
31872;SDS011;22407;42.820;23.374;2022-11-22T05:09:41;24.70;;;22.07;;
31872;SDS011;22407;42.820;23.374;2022-11-22T05:12:07;24.07;;;21.57;;
31872;SDS011;22407;42.820;23.374;2022-11-22T05:14:32;24.50;;;22.08;;
31872;SDS011;22407;42.820;23.374;2022-11-22T05:16:57;23.87;;;21.47;;
31872;SDS011;22407;42.820;23.374;2022-11-22T05:19:23;25.47;;;22.93;;
31872;SDS011;22407;42.820;23.374;2022-11-22T05:21:48;24.47;;;22.07;;
31872;SDS011;22407;42.820;23.374;2022-11-22T05:24:13;23.17;;;20.97;;
31872;SDS011;22407;42.820;23.374;2022-11-22T05:26:39;22.83;;;20.83;;
31872;SDS011;22407;42.820;23.374;2022-11-22T05:29:05;22.00;;;20.20;;
31872;SDS011;22407;42.820;23.374;2022-11-22T05:31:31;20.35;;;18.65;;
31872;SDS011;22407;42.820;23.374;2022-11-22T05:33:57;21.65;;;19.75;;
31872;SDS011;22407;42.820;23.374;2022-11-22T05:36:23;24.13;;;21.80;;
31872;SDS011;22407;42.820;23.374;2022-11-22T05:38:48;22.02;;;19.92;;
31872;SDS011;22407;42.820;23.374;2022-11-22T05:41:14;24.03;;;21.83;;
31872;SDS011;22407;42.820;23.374;2022-11-22T05:43:39;23.70;;;20.77;;
31872;SDS011;22407;42.820;23.374;2022-11-22T05:48:34;21.92;;;20.13;;
31872;SDS011;22407;42.820;23.374;2022-11-22T05:51:06;21.20;;;19.30;;
31872;SDS011;22407;42.820;23.374;2022-11-22T05:53:31;23.88;;;21.83;;
31872;SDS011;22407;42.820;23.374;2022-11-22T05:55:57;25.63;;;23.13;;
31872;SDS011;22407;42.820;23.374;2022-11-22T05:58:23;22.85;;;20.85;;
31872;SDS011;22407;42.820;23.374;2022-11-22T06:00:48;24.50;;;22.30;;
31872;SDS011;22407;42.820;23.374;2022-11-22T06:03:13;23.07;;;20.77;;
31872;SDS011;22407;42.820;23.374;2022-11-22T06:05:39;24.58;;;22.38;;
31872;SDS011;22407;42.820;23.374;2022-11-22T06:08:04;24.70;;;22.40;;
31872;SDS011;22407;42.820;23.374;2022-11-22T06:10:30;23.40;;;21.30;;
31872;SDS011;22407;42.820;23.374;2022-11-22T06:12:58;23.60;;;21.47;;
31872;SDS011;22407;42.820;23.374;2022-11-22T06:15:23;26.10;;;23.47;;
31872;SDS011;22407;42.820;23.374;2022-11-22T06:17:48;31.23;;;25.53;;
31872;SDS011;22407;42.820;23.374;2022-11-22T06:20:14;27.37;;;24.43;;
31872;SDS011;22407;42.820;23.374;2022-11-22T06:22:39;26.10;;;23.40;;
31872;SDS011;22407;42.820;23.374;2022-11-22T06:25:05;25.17;;;22.57;;
31872;SDS011;22407;42.820;23.374;2022-11-22T06:27:30;25.73;;;23.33;;
31872;SDS011;22407;42.820;23.374;2022-11-22T06:29:55;27.20;;;24.30;;
31872;SDS011;22407;42.820;23.374;2022-11-22T06:32:21;25.33;;;23.13;;
31872;SDS011;22407;42.820;23.374;2022-11-22T06:34:46;23.57;;;21.37;;
31872;SDS011;22407;42.820;23.374;2022-11-22T06:37:15;24.13;;;21.92;;
31872;SDS011;22407;42.820;23.374;2022-11-22T06:39:40;25.17;;;22.85;;
31872;SDS011;22407;42.820;23.374;2022-11-22T06:42:06;20.13;;;18.42;;
31872;SDS011;22407;42.820;23.374;2022-11-22T06:44:31;20.60;;;18.80;;
31872;SDS011;22407;42.820;23.374;2022-11-22T06:46:58;21.43;;;19.73;;
31872;SDS011;22407;42.820;23.374;2022-11-22T06:49:23;19.23;;;17.63;;
31872;SDS011;22407;42.820;23.374;2022-11-22T06:51:49;19.70;;;18.10;;
31872;SDS011;22407;42.820;23.374;2022-11-22T06:54:14;19.97;;;18.37;;
31872;SDS011;22407;42.820;23.374;2022-11-22T06:56:40;20.53;;;18.83;;
31872;SDS011;22407;42.820;23.374;2022-11-22T06:59:05;29.27;;;24.10;;
31872;SDS011;22407;42.820;23.374;2022-11-22T07:01:31;32.40;;;26.03;;
31872;SDS011;22407;42.820;23.374;2022-11-22T07:03:57;30.88;;;27.05;;
31872;SDS011;22407;42.820;23.374;2022-11-22T07:06:24;30.83;;;27.50;;
31872;SDS011;22407;42.820;23.374;2022-11-22T07:08:49;29.42;;;25.05;;
31872;SDS011;22407;42.820;23.374;2022-11-22T07:11:22;26.55;;;23.00;;
31872;SDS011;22407;42.820;23.374;2022-11-22T07:13:47;35.15;;;27.50;;
31872;SDS011;22407;42.820;23.374;2022-11-22T07:16:14;32.28;;;27.05;;
31872;SDS011;22407;42.820;23.374;2022-11-22T07:18:40;32.90;;;27.00;;
31872;SDS011;22407;42.820;23.374;2022-11-22T07:21:09;35.42;;;27.30;;
31872;SDS011;22407;42.820;23.374;2022-11-22T07:23:34;34.97;;;27.13;;
31872;SDS011;22407;42.820;23.374;2022-11-22T07:26:00;38.67;;;30.77;;
31872;SDS011;22407;42.820;23.374;2022-11-22T07:28:26;38.38;;;31.10;;
31872;SDS011;22407;42.820;23.374;2022-11-22T07:30:51;37.50;;;30.03;;
31872;SDS011;22407;42.820;23.374;2022-11-22T07:33:17;39.07;;;29.87;;
31872;SDS011;22407;42.820;23.374;2022-11-22T07:35:42;34.33;;;27.43;;
31872;SDS011;22407;42.820;23.374;2022-11-22T07:38:07;32.58;;;26.90;;
31872;SDS011;22407;42.820;23.374;2022-11-22T07:40:33;34.00;;;27.03;;
31872;SDS011;22407;42.820;23.374;2022-11-22T07:42:59;33.60;;;26.20;;
31872;SDS011;22407;42.820;23.374;2022-11-22T07:45:24;31.70;;;26.85;;
31872;SDS011;22407;42.820;23.374;2022-11-22T07:47:50;31.53;;;26.00;;
31872;SDS011;22407;42.820;23.374;2022-11-22T07:50:15;33.40;;;25.73;;
31872;SDS011;22407;42.820;23.374;2022-11-22T07:52:40;30.77;;;25.60;;
31872;SDS011;22407;42.820;23.374;2022-11-22T07:55:06;26.70;;;23.00;;
31872;SDS011;22407;42.820;23.374;2022-11-22T07:57:32;24.67;;;20.40;;
31872;SDS011;22407;42.820;23.374;2022-11-22T07:59:57;21.80;;;19.05;;
31872;SDS011;22407;42.820;23.374;2022-11-22T08:02:23;21.83;;;19.50;;
31872;SDS011;22407;42.820;23.374;2022-11-22T08:04:48;20.05;;;17.80;;
31872;SDS011;22407;42.820;23.374;2022-11-22T08:07:23;21.80;;;17.97;;
31872;SDS011;22407;42.820;23.374;2022-11-22T08:09:49;23.35;;;19.08;;
31872;SDS011;22407;42.820;23.374;2022-11-22T08:12:14;21.13;;;18.80;;
31872;SDS011;22407;42.820;23.374;2022-11-22T08:14:39;23.93;;;20.70;;
31872;SDS011;22407;42.820;23.374;2022-11-22T08:17:05;24.65;;;21.60;;
31872;SDS011;22407;42.820;23.374;2022-11-22T08:19:30;24.13;;;20.67;;
31872;SDS011;22407;42.820;23.374;2022-11-22T08:21:57;22.48;;;19.90;;
31872;SDS011;22407;42.820;23.374;2022-11-22T08:24:23;22.43;;;19.23;;
31872;SDS011;22407;42.820;23.374;2022-11-22T08:26:49;22.38;;;19.80;;
31872;SDS011;22407;42.820;23.374;2022-11-22T08:29:14;24.90;;;20.73;;
31872;SDS011;22407;42.820;23.374;2022-11-22T08:31:40;21.10;;;14.77;;
31872;SDS011;22407;42.820;23.374;2022-11-22T08:34:05;18.37;;;10.70;;
31872;SDS011;22407;42.820;23.374;2022-11-22T08:36:31;19.07;;;12.10;;
31872;SDS011;22407;42.820;23.374;2022-11-22T08:38:56;18.83;;;15.13;;
31872;SDS011;22407;42.820;23.374;2022-11-22T08:41:22;16.40;;;11.27;;
31872;SDS011;22407;42.820;23.374;2022-11-22T08:43:53;18.77;;;12.03;;
31872;SDS011;22407;42.820;23.374;2022-11-22T08:46:19;20.75;;;14.82;;
31872;SDS011;22407;42.820;23.374;2022-11-22T08:48:44;20.93;;;13.83;;
31872;SDS011;22407;42.820;23.374;2022-11-22T08:51:10;17.13;;;9.45;;
31872;SDS011;22407;42.820;23.374;2022-11-22T08:53:36;17.73;;;7.93;;
31872;SDS011;22407;42.820;23.374;2022-11-22T08:56:02;41.78;;;15.07;;
31872;SDS011;22407;42.820;23.374;2022-11-22T08:58:28;20.33;;;8.98;;
31872;SDS011;22407;42.820;23.374;2022-11-22T09:00:55;21.02;;;9.93;;
31872;SDS011;22407;42.820;23.374;2022-11-22T09:03:20;23.67;;;14.70;;
31872;SDS011;22407;42.820;23.374;2022-11-22T09:05:45;20.00;;;13.43;;
31872;SDS011;22407;42.820;23.374;2022-11-22T09:08:11;16.07;;;10.67;;
31872;SDS011;22407;42.820;23.374;2022-11-22T09:10:36;15.43;;;7.50;;
31872;SDS011;22407;42.820;23.374;2022-11-22T09:13:01;17.90;;;10.93;;
31872;SDS011;22407;42.820;23.374;2022-11-22T09:15:27;17.17;;;10.73;;
31872;SDS011;22407;42.820;23.374;2022-11-22T09:17:58;18.50;;;14.63;;
31872;SDS011;22407;42.820;23.374;2022-11-22T09:20:23;15.93;;;10.23;;
31872;SDS011;22407;42.820;23.374;2022-11-22T09:22:49;21.10;;;13.10;;
31872;SDS011;22407;42.820;23.374;2022-11-22T09:25:14;22.48;;;16.98;;
31872;SDS011;22407;42.820;23.374;2022-11-22T09:27:40;18.73;;;11.10;;
31872;SDS011;22407;42.820;23.374;2022-11-22T09:30:05;18.47;;;7.70;;
31872;SDS011;22407;42.820;23.374;2022-11-22T09:32:31;26.67;;;12.07;;
31872;SDS011;22407;42.820;23.374;2022-11-22T09:34:57;16.80;;;6.90;;
31872;SDS011;22407;42.820;23.374;2022-11-22T09:37:22;18.83;;;8.40;;
31872;SDS011;22407;42.820;23.374;2022-11-22T09:39:47;18.90;;;8.77;;
31872;SDS011;22407;42.820;23.374;2022-11-22T09:52:45;16.08;;;7.07;;
31872;SDS011;22407;42.820;23.374;2022-11-22T09:57:40;14.73;;;6.30;;
31872;SDS011;22407;42.820;23.374;2022-11-22T10:00:08;13.40;;;5.80;;
31872;SDS011;22407;42.820;23.374;2022-11-22T10:02:41;13.38;;;5.38;;
31872;SDS011;22407;42.820;23.374;2022-11-22T10:05:19;13.60;;;6.10;;
31872;SDS011;22407;42.820;23.374;2022-11-22T10:07:47;13.23;;;5.82;;
31872;SDS011;22407;42.820;23.374;2022-11-22T10:10:16;15.18;;;6.40;;
31872;SDS011;22407;42.820;23.374;2022-11-22T10:12:48;15.57;;;6.70;;
31872;SDS011;22407;42.820;23.374;2022-11-22T16:42:26;11.43;;;5.43;;
31872;SDS011;22407;42.820;23.374;2022-11-22T16:44:51;8.70;;;3.67;;
31872;SDS011;22407;42.820;23.374;2022-11-22T16:47:17;9.20;;;4.10;;
31872;SDS011;22407;42.820;23.374;2022-11-22T16:49:43;9.17;;;4.30;;
31872;SDS011;22407;42.820;23.374;2022-11-22T16:52:18;10.80;;;5.95;;
31872;SDS011;22407;42.820;23.374;2022-11-22T16:54:43;8.05;;;3.70;;
31872;SDS011;22407;42.820;23.374;2022-11-22T16:57:12;8.83;;;3.60;;
31872;SDS011;22407;42.820;23.374;2022-11-22T16:59:37;9.32;;;4.47;;
31872;SDS011;22407;42.820;23.374;2022-11-22T17:02:05;8.20;;;3.47;;
31872;SDS011;22407;42.820;23.374;2022-11-22T17:04:33;7.20;;;3.10;;
31872;SDS011;22407;42.820;23.374;2022-11-22T17:06:58;8.30;;;3.30;;
31872;SDS011;22407;42.820;23.374;2022-11-22T17:09:24;8.73;;;3.83;;
31872;SDS011;22407;42.820;23.374;2022-11-22T17:11:49;9.43;;;3.27;;
31872;SDS011;22407;42.820;23.374;2022-11-22T17:14:15;8.20;;;3.00;;
31872;SDS011;22407;42.820;23.374;2022-11-22T17:16:40;7.93;;;3.30;;
31872;SDS011;22407;42.820;23.374;2022-11-22T17:19:06;9.13;;;3.90;;
31872;SDS011;22407;42.820;23.374;2022-11-22T17:21:31;8.00;;;3.60;;
31872;SDS011;22407;42.820;23.374;2022-11-22T17:23:58;7.63;;;3.22;;
31872;SDS011;22407;42.820;23.374;2022-11-22T17:26:24;7.82;;;3.10;;
31872;SDS011;22407;42.820;23.374;2022-11-22T17:28:50;8.13;;;3.53;;
31872;SDS011;22407;42.820;23.374;2022-11-22T17:31:16;8.67;;;3.80;;
31872;SDS011;22407;42.820;23.374;2022-11-22T17:33:41;9.23;;;3.83;;
31872;SDS011;22407;42.820;23.374;2022-11-22T17:36:21;11.87;;;4.63;;
31872;SDS011;22407;42.820;23.374;2022-11-22T17:38:48;14.65;;;6.20;;
31872;SDS011;22407;42.820;23.374;2022-11-22T17:41:14;16.83;;;6.35;;
31872;SDS011;22407;42.820;23.374;2022-11-22T17:43:39;13.73;;;5.50;;
31872;SDS011;22407;42.820;23.374;2022-11-22T17:46:04;14.10;;;6.63;;
31872;SDS011;22407;42.820;23.374;2022-11-22T17:48:30;10.83;;;4.00;;
31872;SDS011;22407;42.820;23.374;2022-11-22T17:50:55;10.37;;;4.17;;
31872;SDS011;22407;42.820;23.374;2022-11-22T17:53:20;12.33;;;6.00;;
31872;SDS011;22407;42.820;23.374;2022-11-22T17:55:46;12.02;;;5.22;;
31872;SDS011;22407;42.820;23.374;2022-11-22T17:58:12;13.93;;;5.90;;
31872;SDS011;22407;42.820;23.374;2022-11-22T18:00:37;10.37;;;4.30;;
31872;SDS011;22407;42.820;23.374;2022-11-22T18:03:03;17.90;;;9.60;;
31872;SDS011;22407;42.820;23.374;2022-11-22T18:05:28;13.73;;;6.33;;
31872;SDS011;22407;42.820;23.374;2022-11-22T18:07:53;25.47;;;13.00;;
31872;SDS011;22407;42.820;23.374;2022-11-22T18:10:19;11.63;;;4.67;;
31872;SDS011;22407;42.820;23.374;2022-11-22T18:12:44;7.53;;;3.38;;
31872;SDS011;22407;42.820;23.374;2022-11-22T18:15:10;8.10;;;3.60;;
31872;SDS011;22407;42.820;23.374;2022-11-22T18:17:35;7.20;;;2.80;;
31872;SDS011;22407;42.820;23.374;2022-11-22T18:20:01;7.93;;;3.33;;
31872;SDS011;22407;42.820;23.374;2022-11-22T18:22:26;8.40;;;3.73;;
31872;SDS011;22407;42.820;23.374;2022-11-22T18:24:51;7.60;;;3.50;;
31872;SDS011;22407;42.820;23.374;2022-11-22T18:27:17;7.80;;;3.20;;
31872;SDS011;22407;42.820;23.374;2022-11-22T18:29:42;9.10;;;3.70;;
31872;SDS011;22407;42.820;23.374;2022-11-22T18:32:07;9.73;;;4.07;;
31872;SDS011;22407;42.820;23.374;2022-11-22T18:34:33;9.93;;;4.32;;
31872;SDS011;22407;42.820;23.374;2022-11-22T18:36:58;8.27;;;3.33;;
31872;SDS011;22407;42.820;23.374;2022-11-22T18:39:24;9.87;;;3.90;;
31872;SDS011;22407;42.820;23.374;2022-11-22T18:42:01;11.37;;;4.60;;
31872;SDS011;22407;42.820;23.374;2022-11-22T18:44:26;10.00;;;3.80;;
31872;SDS011;22407;42.820;23.374;2022-11-22T18:46:52;9.57;;;3.77;;
31872;SDS011;22407;42.820;23.374;2022-11-22T18:49:17;7.37;;;3.10;;
31872;SDS011;22407;42.820;23.374;2022-11-22T18:51:43;8.10;;;3.50;;
31872;SDS011;22407;42.820;23.374;2022-11-22T18:54:08;10.27;;;4.53;;
31872;SDS011;22407;42.820;23.374;2022-11-22T18:56:36;8.48;;;2.95;;
31872;SDS011;22407;42.820;23.374;2022-11-22T18:59:04;7.83;;;3.20;;
31872;SDS011;22407;42.820;23.374;2022-11-22T19:01:30;8.32;;;3.70;;
31872;SDS011;22407;42.820;23.374;2022-11-22T19:03:56;8.73;;;3.20;;
31872;SDS011;22407;42.820;23.374;2022-11-22T19:06:22;8.00;;;3.00;;
31872;SDS011;22407;42.820;23.374;2022-11-22T19:08:47;7.17;;;2.60;;
31872;SDS011;22407;42.820;23.374;2022-11-22T19:11:12;7.20;;;2.30;;
31872;SDS011;22407;42.820;23.374;2022-11-22T19:13:39;7.13;;;2.27;;
31872;SDS011;22407;42.820;23.374;2022-11-22T19:18:33;6.47;;;2.28;;
31872;SDS011;22407;42.820;23.374;2022-11-22T19:21:07;6.70;;;2.30;;
31872;SDS011;22407;42.820;23.374;2022-11-22T19:23:33;6.50;;;2.10;;
31872;SDS011;22407;42.820;23.374;2022-11-22T19:26:09;6.47;;;2.10;;
31872;SDS011;22407;42.820;23.374;2022-11-22T19:28:35;5.90;;;2.00;;
31872;SDS011;22407;42.820;23.374;2022-11-22T19:31:09;6.43;;;2.20;;
31872;SDS011;22407;42.820;23.374;2022-11-22T19:33:35;7.25;;;2.45;;
31872;SDS011;22407;42.820;23.374;2022-11-22T19:36:01;7.18;;;2.40;;
31872;SDS011;22407;42.820;23.374;2022-11-22T19:38:27;7.07;;;2.40;;
31872;SDS011;22407;42.820;23.374;2022-11-22T19:40:53;7.63;;;2.67;;
31872;SDS011;22407;42.820;23.374;2022-11-22T19:43:18;7.40;;;2.70;;
31872;SDS011;22407;42.820;23.374;2022-11-22T19:45:44;7.57;;;2.60;;
31872;SDS011;22407;42.820;23.374;2022-11-22T19:48:09;8.77;;;3.20;;
31872;SDS011;22407;42.820;23.374;2022-11-22T19:50:38;9.02;;;3.30;;
31872;SDS011;22407;42.820;23.374;2022-11-22T19:53:04;11.50;;;4.30;;
31872;SDS011;22407;42.820;23.374;2022-11-22T19:55:31;10.97;;;4.40;;
31872;SDS011;22407;42.820;23.374;2022-11-22T19:57:57;9.90;;;3.58;;
31872;SDS011;22407;42.820;23.374;2022-11-22T20:00:22;19.53;;;8.63;;
31872;SDS011;22407;42.820;23.374;2022-11-22T20:02:48;14.77;;;6.57;;
31872;SDS011;22407;42.820;23.374;2022-11-22T20:05:13;15.13;;;8.23;;
31872;SDS011;22407;42.820;23.374;2022-11-22T20:07:38;15.03;;;8.23;;
31872;SDS011;22407;42.820;23.374;2022-11-22T20:10:04;13.70;;;7.00;;
31872;SDS011;22407;42.820;23.374;2022-11-22T20:12:29;13.20;;;6.00;;
31872;SDS011;22407;42.820;23.374;2022-11-22T20:14:54;9.57;;;3.77;;
31872;SDS011;22407;42.820;23.374;2022-11-22T20:17:20;7.73;;;3.10;;
31872;SDS011;22407;42.820;23.374;2022-11-22T20:19:46;10.93;;;4.32;;
31872;SDS011;22407;42.820;23.374;2022-11-22T20:22:11;11.57;;;4.32;;
31872;SDS011;22407;42.820;23.374;2022-11-22T20:24:37;14.53;;;5.60;;
31872;SDS011;22407;42.820;23.374;2022-11-22T20:27:02;11.70;;;4.17;;
31872;SDS011;22407;42.820;23.374;2022-11-22T20:29:27;12.07;;;4.10;;
31872;SDS011;22407;42.820;23.374;2022-11-22T20:31:53;9.83;;;3.10;;
31872;SDS011;22407;42.820;23.374;2022-11-22T20:34:20;8.48;;;2.65;;
31872;SDS011;22407;42.820;23.374;2022-11-22T20:36:45;6.67;;;2.10;;
31872;SDS011;22407;42.820;23.374;2022-11-22T20:39:10;6.57;;;2.33;;
31872;SDS011;22407;42.820;23.374;2022-11-22T20:41:36;7.28;;;2.65;;
31872;SDS011;22407;42.820;23.374;2022-11-22T20:44:02;6.50;;;2.30;;
31872;SDS011;22407;42.820;23.374;2022-11-22T20:46:27;7.10;;;2.57;;
31872;SDS011;22407;42.820;23.374;2022-11-22T20:48:53;9.13;;;2.20;;
31872;SDS011;22407;42.820;23.374;2022-11-22T20:51:22;7.88;;;2.80;;
31872;SDS011;22407;42.820;23.374;2022-11-22T20:53:48;8.35;;;2.97;;
31872;SDS011;22407;42.820;23.374;2022-11-22T20:56:13;6.82;;;2.30;;
31872;SDS011;22407;42.820;23.374;2022-11-22T20:58:39;5.95;;;2.10;;
31872;SDS011;22407;42.820;23.374;2022-11-22T21:01:06;5.70;;;1.83;;